sensor_id;sensor_type;location;lat;lon;timestamp;P1;durP1;ratioP1;P2;durP2;ratioP2
53505;SDS011;39388;50.936;6.848;2022-08-07T00:02:19;3.05;;;1.83;;
53505;SDS011;39388;50.936;6.848;2022-08-07T00:04:49;2.65;;;1.73;;
53505;SDS011;39388;50.936;6.848;2022-08-07T00:07:20;2.40;;;1.88;;
53505;SDS011;39388;50.936;6.848;2022-08-07T00:09:50;3.05;;;1.80;;
53505;SDS011;39388;50.936;6.848;2022-08-07T00:12:20;2.72;;;1.73;;
53505;SDS011;39388;50.936;6.848;2022-08-07T00:14:51;3.17;;;2.17;;
53505;SDS011;39388;50.936;6.848;2022-08-07T00:17:21;2.72;;;1.73;;
53505;SDS011;39388;50.936;6.848;2022-08-07T00:19:52;2.53;;;1.85;;
53505;SDS011;39388;50.936;6.848;2022-08-07T00:22:22;2.97;;;1.80;;
53505;SDS011;39388;50.936;6.848;2022-08-07T00:24:52;2.63;;;2.00;;
53505;SDS011;39388;50.936;6.848;2022-08-07T00:27:23;2.10;;;1.90;;
53505;SDS011;39388;50.936;6.848;2022-08-07T00:29:53;2.33;;;1.77;;
53505;SDS011;39388;50.936;6.848;2022-08-07T00:32:24;4.22;;;1.92;;
53505;SDS011;39388;50.936;6.848;2022-08-07T00:34:54;2.38;;;1.92;;
53505;SDS011;39388;50.936;6.848;2022-08-07T00:37:24;2.22;;;1.90;;
53505;SDS011;39388;50.936;6.848;2022-08-07T00:39:55;2.25;;;1.80;;
53505;SDS011;39388;50.936;6.848;2022-08-07T00:42:25;2.53;;;1.90;;
53505;SDS011;39388;50.936;6.848;2022-08-07T00:44:56;3.05;;;1.80;;
53505;SDS011;39388;50.936;6.848;2022-08-07T00:47:26;2.70;;;2.08;;
53505;SDS011;39388;50.936;6.848;2022-08-07T00:49:57;2.35;;;1.83;;
53505;SDS011;39388;50.936;6.848;2022-08-07T00:52:27;3.35;;;1.80;;
53505;SDS011;39388;50.936;6.848;2022-08-07T00:54:58;3.42;;;1.98;;
53505;SDS011;39388;50.936;6.848;2022-08-07T00:57:28;2.75;;;1.90;;
53505;SDS011;39388;50.936;6.848;2022-08-07T00:59:58;5.10;;;1.83;;
53505;SDS011;39388;50.936;6.848;2022-08-07T01:02:29;2.13;;;1.90;;
53505;SDS011;39388;50.936;6.848;2022-08-07T01:04:59;2.97;;;2.00;;
53505;SDS011;39388;50.936;6.848;2022-08-07T01:07:30;3.05;;;2.10;;
53505;SDS011;39388;50.936;6.848;2022-08-07T01:10:00;3.92;;;1.98;;
53505;SDS011;39388;50.936;6.848;2022-08-07T01:12:31;3.20;;;2.05;;
53505;SDS011;39388;50.936;6.848;2022-08-07T01:15:02;2.05;;;1.85;;
53505;SDS011;39388;50.936;6.848;2022-08-07T01:17:34;2.55;;;1.90;;
53505;SDS011;39388;50.936;6.848;2022-08-07T01:20:08;2.13;;;1.70;;
53505;SDS011;39388;50.936;6.848;2022-08-07T01:22:40;3.83;;;2.10;;
53505;SDS011;39388;50.936;6.848;2022-08-07T01:25:12;2.97;;;1.90;;
53505;SDS011;39388;50.936;6.848;2022-08-07T01:27:43;2.00;;;1.77;;
53505;SDS011;39388;50.936;6.848;2022-08-07T01:30:13;3.10;;;2.00;;
53505;SDS011;39388;50.936;6.848;2022-08-07T01:32:44;2.30;;;2.10;;
53505;SDS011;39388;50.936;6.848;2022-08-07T01:35:14;2.30;;;1.90;;
53505;SDS011;39388;50.936;6.848;2022-08-07T01:37:46;3.00;;;2.13;;
53505;SDS011;39388;50.936;6.848;2022-08-07T01:40:18;3.13;;;2.30;;
53505;SDS011;39388;50.936;6.848;2022-08-07T01:42:50;3.45;;;2.30;;
53505;SDS011;39388;50.936;6.848;2022-08-07T01:45:21;3.08;;;2.25;;
53505;SDS011;39388;50.936;6.848;2022-08-07T01:47:51;2.10;;;1.90;;
53505;SDS011;39388;50.936;6.848;2022-08-07T01:50:22;2.38;;;1.85;;
53505;SDS011;39388;50.936;6.848;2022-08-07T01:52:52;3.97;;;2.20;;
53505;SDS011;39388;50.936;6.848;2022-08-07T01:55:33;2.53;;;2.13;;
53505;SDS011;39388;50.936;6.848;2022-08-07T01:58:07;3.40;;;2.10;;
53505;SDS011;39388;50.936;6.848;2022-08-07T02:00:40;2.72;;;2.25;;
53505;SDS011;39388;50.936;6.848;2022-08-07T02:03:12;4.00;;;2.65;;
53505;SDS011;39388;50.936;6.848;2022-08-07T02:08:25;2.88;;;2.30;;
53505;SDS011;39388;50.936;6.848;2022-08-07T02:10:58;2.60;;;2.10;;
53505;SDS011;39388;50.936;6.848;2022-08-07T02:13:31;1.90;;;1.70;;
53505;SDS011;39388;50.936;6.848;2022-08-07T02:18:36;3.55;;;2.10;;
53505;SDS011;39388;50.936;6.848;2022-08-07T02:21:07;2.57;;;2.13;;
53505;SDS011;39388;50.936;6.848;2022-08-07T02:23:38;4.25;;;2.40;;
53505;SDS011;39388;50.936;6.848;2022-08-07T02:26:10;2.22;;;2.03;;
53505;SDS011;39388;50.936;6.848;2022-08-07T02:28:42;3.08;;;2.10;;
53505;SDS011;39388;50.936;6.848;2022-08-07T02:31:13;2.67;;;2.10;;
53505;SDS011;39388;50.936;6.848;2022-08-07T02:33:44;3.08;;;2.20;;
53505;SDS011;39388;50.936;6.848;2022-08-07T02:36:16;2.70;;;2.20;;
53505;SDS011;39388;50.936;6.848;2022-08-07T02:38:48;2.70;;;2.10;;
53505;SDS011;39388;50.936;6.848;2022-08-07T02:43:52;2.25;;;1.90;;
53505;SDS011;39388;50.936;6.848;2022-08-07T02:46:25;2.75;;;2.38;;
53505;SDS011;39388;50.936;6.848;2022-08-07T02:48:59;2.63;;;2.30;;
53505;SDS011;39388;50.936;6.848;2022-08-07T02:51:30;2.35;;;2.13;;
53505;SDS011;39388;50.936;6.848;2022-08-07T02:54:03;3.63;;;2.25;;
53505;SDS011;39388;50.936;6.848;2022-08-07T02:56:37;2.92;;;2.30;;
53505;SDS011;39388;50.936;6.848;2022-08-07T02:59:10;3.58;;;2.20;;
53505;SDS011;39388;50.936;6.848;2022-08-07T03:01:43;2.90;;;2.28;;
53505;SDS011;39388;50.936;6.848;2022-08-07T03:04:15;3.60;;;2.08;;
53505;SDS011;39388;50.936;6.848;2022-08-07T03:06:48;4.13;;;2.10;;
53505;SDS011;39388;50.936;6.848;2022-08-07T03:09:19;3.22;;;2.33;;
53505;SDS011;39388;50.936;6.848;2022-08-07T03:11:51;2.97;;;2.65;;
53505;SDS011;39388;50.936;6.848;2022-08-07T03:14:22;2.90;;;2.38;;
53505;SDS011;39388;50.936;6.848;2022-08-07T03:16:54;2.90;;;2.15;;
53505;SDS011;39388;50.936;6.848;2022-08-07T03:19:25;3.53;;;2.22;;
53505;SDS011;39388;50.936;6.848;2022-08-07T03:21:55;2.85;;;2.25;;
53505;SDS011;39388;50.936;6.848;2022-08-07T03:24:26;2.75;;;2.30;;
53505;SDS011;39388;50.936;6.848;2022-08-07T03:26:59;2.67;;;2.38;;
53505;SDS011;39388;50.936;6.848;2022-08-07T03:29:34;3.70;;;2.35;;
53505;SDS011;39388;50.936;6.848;2022-08-07T03:32:09;2.40;;;2.20;;
53505;SDS011;39388;50.936;6.848;2022-08-07T03:34:45;4.07;;;2.30;;
53505;SDS011;39388;50.936;6.848;2022-08-07T03:37:19;3.78;;;2.33;;
53505;SDS011;39388;50.936;6.848;2022-08-07T03:39:51;3.13;;;2.20;;
53505;SDS011;39388;50.936;6.848;2022-08-07T03:42:22;3.10;;;2.47;;
53505;SDS011;39388;50.936;6.848;2022-08-07T03:44:54;2.72;;;2.40;;
53505;SDS011;39388;50.936;6.848;2022-08-07T03:47:25;2.92;;;2.35;;
53505;SDS011;39388;50.936;6.848;2022-08-07T03:49:58;3.47;;;2.40;;
53505;SDS011;39388;50.936;6.848;2022-08-07T03:52:29;3.33;;;2.40;;
53505;SDS011;39388;50.936;6.848;2022-08-07T03:55:01;3.30;;;2.38;;
53505;SDS011;39388;50.936;6.848;2022-08-07T03:57:32;3.83;;;2.38;;
53505;SDS011;39388;50.936;6.848;2022-08-07T04:00:04;2.73;;;2.43;;
53505;SDS011;39388;50.936;6.848;2022-08-07T04:02:35;2.50;;;2.20;;
53505;SDS011;39388;50.936;6.848;2022-08-07T04:05:06;3.85;;;2.38;;
53505;SDS011;39388;50.936;6.848;2022-08-07T04:07:36;3.88;;;2.25;;
53505;SDS011;39388;50.936;6.848;2022-08-07T04:10:07;2.88;;;2.28;;
53505;SDS011;39388;50.936;6.848;2022-08-07T04:12:37;2.72;;;2.28;;
53505;SDS011;39388;50.936;6.848;2022-08-07T04:15:09;2.83;;;2.20;;
53505;SDS011;39388;50.936;6.848;2022-08-07T04:17:41;3.53;;;2.38;;
53505;SDS011;39388;50.936;6.848;2022-08-07T04:20:13;3.15;;;2.13;;
53505;SDS011;39388;50.936;6.848;2022-08-07T04:22:43;2.50;;;2.30;;
53505;SDS011;39388;50.936;6.848;2022-08-07T04:25:14;2.78;;;2.15;;
53505;SDS011;39388;50.936;6.848;2022-08-07T04:30:17;2.72;;;2.20;;
53505;SDS011;39388;50.936;6.848;2022-08-07T04:32:48;4.28;;;2.75;;
53505;SDS011;39388;50.936;6.848;2022-08-07T04:35:18;4.03;;;2.60;;
53505;SDS011;39388;50.936;6.848;2022-08-07T04:37:49;3.22;;;2.60;;
53505;SDS011;39388;50.936;6.848;2022-08-07T04:40:20;4.10;;;2.63;;
53505;SDS011;39388;50.936;6.848;2022-08-07T04:42:51;4.10;;;2.40;;
53505;SDS011;39388;50.936;6.848;2022-08-07T04:45:22;2.95;;;2.33;;
53505;SDS011;39388;50.936;6.848;2022-08-07T04:48:01;3.47;;;2.60;;
53505;SDS011;39388;50.936;6.848;2022-08-07T04:50:37;3.78;;;2.60;;
53505;SDS011;39388;50.936;6.848;2022-08-07T04:53:23;4.70;;;2.53;;
53505;SDS011;39388;50.936;6.848;2022-08-07T04:56:03;4.95;;;2.60;;
53505;SDS011;39388;50.936;6.848;2022-08-07T04:58:53;2.88;;;2.20;;
53505;SDS011;39388;50.936;6.848;2022-08-07T05:01:39;3.10;;;2.58;;
53505;SDS011;39388;50.936;6.848;2022-08-07T05:04:17;3.38;;;2.53;;
53505;SDS011;39388;50.936;6.848;2022-08-07T05:09:56;3.95;;;2.50;;
53505;SDS011;39388;50.936;6.848;2022-08-07T05:12:37;2.88;;;2.42;;
53505;SDS011;39388;50.936;6.848;2022-08-07T05:15:15;2.83;;;2.45;;
53505;SDS011;39388;50.936;6.848;2022-08-07T05:17:56;3.33;;;2.50;;
53505;SDS011;39388;50.936;6.848;2022-08-07T05:20:33;2.70;;;2.40;;
53505;SDS011;39388;50.936;6.848;2022-08-07T05:23:10;2.97;;;2.67;;
53505;SDS011;39388;50.936;6.848;2022-08-07T05:25:45;3.25;;;2.83;;
53505;SDS011;39388;50.936;6.848;2022-08-07T05:30:50;3.15;;;2.40;;
53505;SDS011;39388;50.936;6.848;2022-08-07T05:33:22;3.75;;;2.53;;
53505;SDS011;39388;50.936;6.848;2022-08-07T05:35:52;4.32;;;3.00;;
53505;SDS011;39388;50.936;6.848;2022-08-07T05:38:24;3.38;;;2.75;;
53505;SDS011;39388;50.936;6.848;2022-08-07T05:40:57;3.10;;;2.63;;
53505;SDS011;39388;50.936;6.848;2022-08-07T05:43:28;3.55;;;2.50;;
53505;SDS011;39388;50.936;6.848;2022-08-07T05:45:59;4.13;;;2.80;;
53505;SDS011;39388;50.936;6.848;2022-08-07T05:48:31;2.95;;;2.65;;
53505;SDS011;39388;50.936;6.848;2022-08-07T05:51:02;3.50;;;2.70;;
53505;SDS011;39388;50.936;6.848;2022-08-07T05:53:33;4.28;;;2.65;;
53505;SDS011;39388;50.936;6.848;2022-08-07T05:56:03;4.90;;;3.42;;
53505;SDS011;39388;50.936;6.848;2022-08-07T05:58:35;3.07;;;2.67;;
53505;SDS011;39388;50.936;6.848;2022-08-07T06:01:09;3.20;;;2.30;;
53505;SDS011;39388;50.936;6.848;2022-08-07T06:03:42;3.65;;;2.60;;
53505;SDS011;39388;50.936;6.848;2022-08-07T06:06:16;4.45;;;2.88;;
53505;SDS011;39388;50.936;6.848;2022-08-07T06:08:48;4.57;;;2.87;;
53505;SDS011;39388;50.936;6.848;2022-08-07T06:11:19;4.60;;;2.67;;
53505;SDS011;39388;50.936;6.848;2022-08-07T06:13:50;2.97;;;2.63;;
53505;SDS011;39388;50.936;6.848;2022-08-07T06:16:21;2.90;;;2.53;;
53505;SDS011;39388;50.936;6.848;2022-08-07T06:18:52;3.92;;;2.90;;
53505;SDS011;39388;50.936;6.848;2022-08-07T06:21:23;3.85;;;2.60;;
53505;SDS011;39388;50.936;6.848;2022-08-07T06:23:54;3.78;;;2.97;;
53505;SDS011;39388;50.936;6.848;2022-08-07T06:26:24;3.45;;;2.83;;
53505;SDS011;39388;50.936;6.848;2022-08-07T06:28:56;4.57;;;2.78;;
53505;SDS011;39388;50.936;6.848;2022-08-07T06:31:28;3.70;;;2.40;;
53505;SDS011;39388;50.936;6.848;2022-08-07T06:33:59;3.55;;;2.58;;
53505;SDS011;39388;50.936;6.848;2022-08-07T06:36:29;3.38;;;2.60;;
53505;SDS011;39388;50.936;6.848;2022-08-07T06:39:00;3.20;;;2.30;;
53505;SDS011;39388;50.936;6.848;2022-08-07T06:41:32;3.00;;;2.38;;
53505;SDS011;39388;50.936;6.848;2022-08-07T06:44:08;3.67;;;2.50;;
53505;SDS011;39388;50.936;6.848;2022-08-07T06:46:41;3.38;;;2.25;;
53505;SDS011;39388;50.936;6.848;2022-08-07T06:49:11;3.33;;;2.00;;
53505;SDS011;39388;50.936;6.848;2022-08-07T06:51:42;3.13;;;2.22;;
53505;SDS011;39388;50.936;6.848;2022-08-07T06:54:14;3.08;;;2.08;;
53505;SDS011;39388;50.936;6.848;2022-08-07T06:56:47;2.20;;;1.95;;
53505;SDS011;39388;50.936;6.848;2022-08-07T06:59:20;2.17;;;1.92;;
53505;SDS011;39388;50.936;6.848;2022-08-07T07:01:54;2.53;;;1.80;;
53505;SDS011;39388;50.936;6.848;2022-08-07T07:07:00;1.75;;;1.65;;
53505;SDS011;39388;50.936;6.848;2022-08-07T07:09:31;2.20;;;1.83;;
53505;SDS011;39388;50.936;6.848;2022-08-07T07:12:09;2.08;;;1.85;;
53505;SDS011;39388;50.936;6.848;2022-08-07T07:15:19;2.97;;;1.50;;
53505;SDS011;39388;50.936;6.848;2022-08-07T07:18:08;3.95;;;2.00;;
53505;SDS011;39388;50.936;6.848;2022-08-07T07:20:43;2.00;;;1.70;;
53505;SDS011;39388;50.936;6.848;2022-08-07T07:23:19;2.40;;;1.60;;
53505;SDS011;39388;50.936;6.848;2022-08-07T07:25:51;2.30;;;1.52;;
53505;SDS011;39388;50.936;6.848;2022-08-07T07:28:29;1.95;;;1.38;;
53505;SDS011;39388;50.936;6.848;2022-08-07T07:31:07;2.28;;;1.52;;
53505;SDS011;39388;50.936;6.848;2022-08-07T07:33:45;1.70;;;1.60;;
53505;SDS011;39388;50.936;6.848;2022-08-07T07:36:20;1.75;;;1.40;;
53505;SDS011;39388;50.936;6.848;2022-08-07T07:38:53;2.60;;;1.40;;
53505;SDS011;39388;50.936;6.848;2022-08-07T07:41:23;2.10;;;1.42;;
53505;SDS011;39388;50.936;6.848;2022-08-07T07:46:28;1.65;;;1.30;;
53505;SDS011;39388;50.936;6.848;2022-08-07T07:49:02;3.20;;;1.40;;
53505;SDS011;39388;50.936;6.848;2022-08-07T07:51:34;1.95;;;1.30;;
53505;SDS011;39388;50.936;6.848;2022-08-07T07:54:06;3.47;;;1.33;;
53505;SDS011;39388;50.936;6.848;2022-08-07T07:56:38;1.40;;;1.15;;
53505;SDS011;39388;50.936;6.848;2022-08-07T07:59:10;1.55;;;1.20;;
53505;SDS011;39388;50.936;6.848;2022-08-07T08:04:15;1.33;;;1.08;;
53505;SDS011;39388;50.936;6.848;2022-08-07T08:06:47;1.45;;;1.25;;
53505;SDS011;39388;50.936;6.848;2022-08-07T08:09:19;1.42;;;1.05;;
53505;SDS011;39388;50.936;6.848;2022-08-07T08:11:52;1.60;;;0.88;;
53505;SDS011;39388;50.936;6.848;2022-08-07T08:14:23;2.50;;;1.00;;
53505;SDS011;39388;50.936;6.848;2022-08-07T08:16:54;1.35;;;0.90;;
53505;SDS011;39388;50.936;6.848;2022-08-07T08:19:27;0.80;;;0.80;;
53505;SDS011;39388;50.936;6.848;2022-08-07T08:21:59;1.70;;;0.98;;
53505;SDS011;39388;50.936;6.848;2022-08-07T08:24:48;1.63;;;0.88;;
53505;SDS011;39388;50.936;6.848;2022-08-07T08:27:41;1.83;;;0.70;;
53505;SDS011;39388;50.936;6.848;2022-08-07T08:32:44;1.10;;;1.00;;
53505;SDS011;39388;50.936;6.848;2022-08-07T08:35:19;4.22;;;0.90;;
53505;SDS011;39388;50.936;6.848;2022-08-07T08:37:58;2.33;;;1.10;;
53505;SDS011;39388;50.936;6.848;2022-08-07T08:40:37;0.75;;;0.70;;
53505;SDS011;39388;50.936;6.848;2022-08-07T08:43:14;2.03;;;0.90;;
53505;SDS011;39388;50.936;6.848;2022-08-07T08:49:05;1.20;;;0.73;;
53505;SDS011;39388;50.936;6.848;2022-08-07T08:52:24;2.53;;;0.90;;
53505;SDS011;39388;50.936;6.848;2022-08-07T08:58:02;1.30;;;0.70;;
53505;SDS011;39388;50.936;6.848;2022-08-07T09:00:43;0.77;;;0.60;;
53505;SDS011;39388;50.936;6.848;2022-08-07T09:03:29;1.00;;;0.70;;
53505;SDS011;39388;50.936;6.848;2022-08-07T09:11:17;1.90;;;0.82;;
53505;SDS011;39388;50.936;6.848;2022-08-07T09:16:53;2.27;;;0.60;;
53505;SDS011;39388;50.936;6.848;2022-08-07T09:19:44;2.33;;;0.70;;
53505;SDS011;39388;50.936;6.848;2022-08-07T09:25:38;1.30;;;0.77;;
53505;SDS011;39388;50.936;6.848;2022-08-07T09:28:43;0.65;;;0.50;;
53505;SDS011;39388;50.936;6.848;2022-08-07T09:40:04;1.70;;;0.90;;
53505;SDS011;39388;50.936;6.848;2022-08-07T09:42:53;0.93;;;0.50;;
53505;SDS011;39388;50.936;6.848;2022-08-07T09:48:34;1.73;;;0.73;;
53505;SDS011;39388;50.936;6.848;2022-08-07T09:54:18;0.95;;;0.60;;
53505;SDS011;39388;50.936;6.848;2022-08-07T10:00:10;1.27;;;0.60;;
53505;SDS011;39388;50.936;6.848;2022-08-07T10:14:48;1.00;;;0.60;;
53505;SDS011;39388;50.936;6.848;2022-08-07T10:38:01;0.45;;;0.35;;
53505;SDS011;39388;50.936;6.848;2022-08-07T10:43:37;1.88;;;0.60;;
53505;SDS011;39388;50.936;6.848;2022-08-07T10:46:21;0.80;;;0.65;;
53505;SDS011;39388;50.936;6.848;2022-08-07T11:00:15;1.50;;;0.50;;
53505;SDS011;39388;50.936;6.848;2022-08-07T11:05:43;0.60;;;0.60;;
53505;SDS011;39388;50.936;6.848;2022-08-07T11:08:28;1.77;;;0.90;;
53505;SDS011;39388;50.936;6.848;2022-08-07T11:13:48;1.73;;;0.65;;
53505;SDS011;39388;50.936;6.848;2022-08-07T11:16:34;2.63;;;0.77;;
53505;SDS011;39388;50.936;6.848;2022-08-07T11:19:15;0.68;;;0.40;;
53505;SDS011;39388;50.936;6.848;2022-08-07T11:30:16;1.25;;;0.70;;
53505;SDS011;39388;50.936;6.848;2022-08-07T11:32:56;1.20;;;0.50;;
53505;SDS011;39388;50.936;6.848;2022-08-07T11:35:33;1.17;;;0.52;;
53505;SDS011;39388;50.936;6.848;2022-08-07T11:38:13;1.40;;;1.08;;
53505;SDS011;39388;50.936;6.848;2022-08-07T11:43:47;1.35;;;0.68;;
53505;SDS011;39388;50.936;6.848;2022-08-07T11:49:19;0.93;;;0.50;;
53505;SDS011;39388;50.936;6.848;2022-08-07T12:01:05;1.65;;;0.40;;
53505;SDS011;39388;50.936;6.848;2022-08-07T12:09:41;1.63;;;0.60;;
53505;SDS011;39388;50.936;6.848;2022-08-07T12:12:23;1.42;;;0.50;;
53505;SDS011;39388;50.936;6.848;2022-08-07T12:14:59;1.10;;;0.50;;
53505;SDS011;39388;50.936;6.848;2022-08-07T12:17:55;1.20;;;0.57;;
53505;SDS011;39388;50.936;6.848;2022-08-07T12:26:40;1.60;;;0.60;;
53505;SDS011;39388;50.936;6.848;2022-08-07T12:30:00;1.08;;;0.52;;
53505;SDS011;39388;50.936;6.848;2022-08-07T12:32:16;0.40;;;0.40;;
53505;SDS011;39388;50.936;6.848;2022-08-07T12:34:50;1.13;;;0.40;;
53505;SDS011;39388;50.936;6.848;2022-08-07T12:37:23;0.75;;;0.50;;
53505;SDS011;39388;50.936;6.848;2022-08-07T12:39:56;0.77;;;0.35;;
53505;SDS011;39388;50.936;6.848;2022-08-07T12:42:28;1.25;;;0.68;;
53505;SDS011;39388;50.936;6.848;2022-08-07T12:45:10;0.75;;;0.43;;
53505;SDS011;39388;50.936;6.848;2022-08-07T12:47:46;0.50;;;0.50;;
53505;SDS011;39388;50.936;6.848;2022-08-07T12:50:34;0.63;;;0.30;;
53505;SDS011;39388;50.936;6.848;2022-08-07T12:55:37;1.63;;;0.47;;
53505;SDS011;39388;50.936;6.848;2022-08-07T12:58:13;0.55;;;0.32;;
53505;SDS011;39388;50.936;6.848;2022-08-07T13:00:49;0.63;;;0.38;;
53505;SDS011;39388;50.936;6.848;2022-08-07T13:08:34;0.70;;;0.60;;
53505;SDS011;39388;50.936;6.848;2022-08-07T13:11:28;1.23;;;0.40;;
53505;SDS011;39388;50.936;6.848;2022-08-07T13:20:02;0.63;;;0.33;;
53505;SDS011;39388;50.936;6.848;2022-08-07T13:22:40;0.40;;;0.40;;
53505;SDS011;39388;50.936;6.848;2022-08-07T13:28:42;0.75;;;0.30;;
53505;SDS011;39388;50.936;6.848;2022-08-07T13:31:00;2.40;;;0.88;;
53505;SDS011;39388;50.936;6.848;2022-08-07T13:33:37;0.40;;;0.40;;
53505;SDS011;39388;50.936;6.848;2022-08-07T13:36:15;0.52;;;0.45;;
53505;SDS011;39388;50.936;6.848;2022-08-07T13:38:58;0.20;;;0.20;;
53505;SDS011;39388;50.936;6.848;2022-08-07T13:41:43;0.60;;;0.40;;
53505;SDS011;39388;50.936;6.848;2022-08-07T13:44:20;0.40;;;0.40;;
53505;SDS011;39388;50.936;6.848;2022-08-07T13:46:56;0.73;;;0.50;;
53505;SDS011;39388;50.936;6.848;2022-08-07T13:49:32;0.75;;;0.30;;
53505;SDS011;39388;50.936;6.848;2022-08-07T13:52:06;0.70;;;0.38;;
53505;SDS011;39388;50.936;6.848;2022-08-07T13:57:10;1.70;;;0.68;;
53505;SDS011;39388;50.936;6.848;2022-08-07T13:59:43;0.77;;;0.55;;
53505;SDS011;39388;50.936;6.848;2022-08-07T14:02:23;2.08;;;0.70;;
53505;SDS011;39388;50.936;6.848;2022-08-07T14:04:58;0.70;;;0.40;;
53505;SDS011;39388;50.936;6.848;2022-08-07T14:07:37;0.50;;;0.40;;
53505;SDS011;39388;50.936;6.848;2022-08-07T14:10:11;1.27;;;0.30;;
53505;SDS011;39388;50.936;6.848;2022-08-07T14:12:43;1.50;;;0.50;;
53505;SDS011;39388;50.936;6.848;2022-08-07T14:15:27;0.82;;;0.30;;
53505;SDS011;39388;50.936;6.848;2022-08-07T14:18:04;0.80;;;0.60;;
53505;SDS011;39388;50.936;6.848;2022-08-07T14:20:45;1.48;;;0.50;;
53505;SDS011;39388;50.936;6.848;2022-08-07T14:23:26;1.67;;;0.50;;
53505;SDS011;39388;50.936;6.848;2022-08-07T14:26:04;0.60;;;0.60;;
53505;SDS011;39388;50.936;6.848;2022-08-07T14:28:43;0.30;;;0.30;;
53505;SDS011;39388;50.936;6.848;2022-08-07T14:31:15;0.82;;;0.47;;
53505;SDS011;39388;50.936;6.848;2022-08-07T14:33:46;0.70;;;0.50;;
53505;SDS011;39388;50.936;6.848;2022-08-07T14:36:17;0.60;;;0.30;;
53505;SDS011;39388;50.936;6.848;2022-08-07T14:38:49;1.50;;;0.50;;
53505;SDS011;39388;50.936;6.848;2022-08-07T14:41:24;0.55;;;0.40;;
53505;SDS011;39388;50.936;6.848;2022-08-07T14:43:56;0.40;;;0.40;;
53505;SDS011;39388;50.936;6.848;2022-08-07T14:46:32;3.53;;;0.65;;
53505;SDS011;39388;50.936;6.848;2022-08-07T14:49:05;1.85;;;0.38;;
53505;SDS011;39388;50.936;6.848;2022-08-07T14:51:37;0.68;;;0.40;;
53505;SDS011;39388;50.936;6.848;2022-08-07T14:54:19;0.60;;;0.40;;
53505;SDS011;39388;50.936;6.848;2022-08-07T14:56:53;1.08;;;0.60;;
53505;SDS011;39388;50.936;6.848;2022-08-07T14:59:25;1.33;;;0.50;;
53505;SDS011;39388;50.936;6.848;2022-08-07T15:02:05;1.17;;;0.50;;
53505;SDS011;39388;50.936;6.848;2022-08-07T15:04:46;0.22;;;0.22;;
53505;SDS011;39388;50.936;6.848;2022-08-07T15:07:21;0.60;;;0.40;;
53505;SDS011;39388;50.936;6.848;2022-08-07T15:09:54;0.70;;;0.40;;
53505;SDS011;39388;50.936;6.848;2022-08-07T15:12:29;0.70;;;0.40;;
53505;SDS011;39388;50.936;6.848;2022-08-07T15:15:04;0.70;;;0.32;;
53505;SDS011;39388;50.936;6.848;2022-08-07T15:17:42;0.57;;;0.40;;
53505;SDS011;39388;50.936;6.848;2022-08-07T15:20:14;0.70;;;0.55;;
53505;SDS011;39388;50.936;6.848;2022-08-07T15:22:52;0.80;;;0.40;;
53505;SDS011;39388;50.936;6.848;2022-08-07T15:25:30;1.15;;;0.77;;
53505;SDS011;39388;50.936;6.848;2022-08-07T15:28:46;0.40;;;0.20;;
53505;SDS011;39388;50.936;6.848;2022-08-07T15:31:17;0.45;;;0.45;;
53505;SDS011;39388;50.936;6.848;2022-08-07T15:33:58;0.50;;;0.40;;
53505;SDS011;39388;50.936;6.848;2022-08-07T15:36:31;0.65;;;0.50;;
53505;SDS011;39388;50.936;6.848;2022-08-07T15:39:08;1.58;;;0.50;;
53505;SDS011;39388;50.936;6.848;2022-08-07T15:44:48;1.95;;;0.50;;
53505;SDS011;39388;50.936;6.848;2022-08-07T15:48:07;1.30;;;0.50;;
53505;SDS011;39388;50.936;6.848;2022-08-07T15:50:47;1.10;;;0.40;;
53505;SDS011;39388;50.936;6.848;2022-08-07T15:53:27;1.05;;;0.63;;
53505;SDS011;39388;50.936;6.848;2022-08-07T15:57:10;0.68;;;0.50;;
53505;SDS011;39388;50.936;6.848;2022-08-07T15:59:43;0.90;;;0.40;;
53505;SDS011;39388;50.936;6.848;2022-08-07T16:02:40;1.13;;;0.35;;
53505;SDS011;39388;50.936;6.848;2022-08-07T16:05:18;0.50;;;0.50;;
53505;SDS011;39388;50.936;6.848;2022-08-07T16:08:02;0.80;;;0.55;;
53505;SDS011;39388;50.936;6.848;2022-08-07T16:11:05;0.98;;;0.40;;
53505;SDS011;39388;50.936;6.848;2022-08-07T16:14:11;0.50;;;0.50;;
53505;SDS011;39388;50.936;6.848;2022-08-07T16:19:57;3.55;;;0.60;;
53505;SDS011;39388;50.936;6.848;2022-08-07T16:55:09;0.50;;;0.30;;
53505;SDS011;39388;50.936;6.848;2022-08-07T17:00:37;1.05;;;0.50;;
53505;SDS011;39388;50.936;6.848;2022-08-07T17:09:43;1.10;;;0.50;;
53505;SDS011;39388;50.936;6.848;2022-08-07T17:12:18;0.70;;;0.52;;
53505;SDS011;39388;50.936;6.848;2022-08-07T17:22:21;0.45;;;0.43;;
53505;SDS011;39388;50.936;6.848;2022-08-07T17:28:31;0.82;;;0.60;;
53505;SDS011;39388;50.936;6.848;2022-08-07T17:31:14;0.85;;;0.55;;
53505;SDS011;39388;50.936;6.848;2022-08-07T17:33:57;0.80;;;0.50;;
53505;SDS011;39388;50.936;6.848;2022-08-07T17:36:33;0.40;;;0.40;;
53505;SDS011;39388;50.936;6.848;2022-08-07T17:45:26;0.80;;;0.50;;
53505;SDS011;39388;50.936;6.848;2022-08-07T17:55:02;0.75;;;0.55;;
53505;SDS011;39388;50.936;6.848;2022-08-07T18:00:35;1.38;;;0.60;;
53505;SDS011;39388;50.936;6.848;2022-08-07T18:03:30;1.02;;;0.77;;
53505;SDS011;39388;50.936;6.848;2022-08-07T18:06:07;0.68;;;0.60;;
53505;SDS011;39388;50.936;6.848;2022-08-07T18:08:53;3.97;;;0.80;;
53505;SDS011;39388;50.936;6.848;2022-08-07T18:11:36;1.55;;;0.50;;
53505;SDS011;39388;50.936;6.848;2022-08-07T18:14:26;1.30;;;0.55;;
53505;SDS011;39388;50.936;6.848;2022-08-07T18:16:58;2.10;;;0.70;;
53505;SDS011;39388;50.936;6.848;2022-08-07T18:19:46;0.70;;;0.60;;
53505;SDS011;39388;50.936;6.848;2022-08-07T18:25:27;1.15;;;0.80;;
53505;SDS011;39388;50.936;6.848;2022-08-07T18:28:18;0.70;;;0.65;;
53505;SDS011;39388;50.936;6.848;2022-08-07T18:33:41;1.10;;;0.60;;
53505;SDS011;39388;50.936;6.848;2022-08-07T18:48:01;0.90;;;0.60;;
53505;SDS011;39388;50.936;6.848;2022-08-07T18:56:06;2.75;;;0.93;;
53505;SDS011;39388;50.936;6.848;2022-08-07T18:58:52;1.65;;;1.00;;
53505;SDS011;39388;50.936;6.848;2022-08-07T19:01:32;3.28;;;1.02;;
53505;SDS011;39388;50.936;6.848;2022-08-07T19:06:52;1.45;;;1.10;;
53505;SDS011;39388;50.936;6.848;2022-08-07T19:12:19;2.30;;;1.17;;
53505;SDS011;39388;50.936;6.848;2022-08-07T19:17:49;1.85;;;1.10;;
53505;SDS011;39388;50.936;6.848;2022-08-07T19:23:30;1.65;;;1.30;;
53505;SDS011;39388;50.936;6.848;2022-08-07T19:26:11;2.20;;;1.10;;
53505;SDS011;39388;50.936;6.848;2022-08-07T19:28:45;2.55;;;1.30;;
53505;SDS011;39388;50.936;6.848;2022-08-07T19:31:33;1.67;;;1.30;;
53505;SDS011;39388;50.936;6.848;2022-08-07T19:34:11;1.20;;;1.10;;
53505;SDS011;39388;50.936;6.848;2022-08-07T19:36:44;4.80;;;1.20;;
53505;SDS011;39388;50.936;6.848;2022-08-07T19:39:19;2.38;;;1.10;;
53505;SDS011;39388;50.936;6.848;2022-08-07T19:41:53;1.92;;;1.10;;
53505;SDS011;39388;50.936;6.848;2022-08-07T19:44:28;1.50;;;1.08;;
53505;SDS011;39388;50.936;6.848;2022-08-07T19:47:27;1.63;;;1.40;;
53505;SDS011;39388;50.936;6.848;2022-08-07T19:50:04;1.25;;;0.90;;
53505;SDS011;39388;50.936;6.848;2022-08-07T19:52:35;1.55;;;1.10;;
53505;SDS011;39388;50.936;6.848;2022-08-07T19:55:07;1.98;;;1.10;;
53505;SDS011;39388;50.936;6.848;2022-08-07T20:00:24;1.73;;;1.30;;
53505;SDS011;39388;50.936;6.848;2022-08-07T20:02:59;2.50;;;1.10;;
53505;SDS011;39388;50.936;6.848;2022-08-07T20:05:37;1.58;;;1.20;;
53505;SDS011;39388;50.936;6.848;2022-08-07T20:08:11;2.72;;;1.17;;
53505;SDS011;39388;50.936;6.848;2022-08-07T20:10:43;4.30;;;1.20;;
53505;SDS011;39388;50.936;6.848;2022-08-07T20:13:22;3.55;;;1.23;;
53505;SDS011;39388;50.936;6.848;2022-08-07T20:16:05;1.67;;;1.40;;
53505;SDS011;39388;50.936;6.848;2022-08-07T20:18:39;1.73;;;1.45;;
53505;SDS011;39388;50.936;6.848;2022-08-07T20:21:13;1.92;;;1.17;;
53505;SDS011;39388;50.936;6.848;2022-08-07T20:23:46;2.10;;;1.38;;